createdAt,value
2017-07-29T00:00:52.220Z,16.92
2017-07-29T00:01:51.798Z,17
2017-07-29T00:02:52.029Z,16.99
2017-07-29T00:03:51.842Z,17.05
2017-07-29T00:04:51.886Z,16.96
2017-07-29T00:05:52.011Z,16.95
2017-07-29T00:06:51.672Z,17
2017-07-29T00:07:51.908Z,16.96
2017-07-29T00:08:51.700Z,16.98
2017-07-29T00:09:51.952Z,17.05
2017-07-29T00:10:51.535Z,17
2017-07-29T00:11:51.581Z,16.95
2017-07-29T00:12:51.348Z,16.91
2017-07-29T00:13:51.825Z,16.9
2017-07-29T00:14:51.441Z,16.92
2017-07-29T00:15:51.520Z,16.91
2017-07-29T00:16:51.573Z,16.87
2017-07-29T00:17:51.759Z,16.9
2017-07-29T00:18:51.669Z,16.88
2017-07-29T00:19:51.363Z,16.92
2017-07-29T00:20:51.052Z,16.91
2017-07-29T00:21:51.398Z,16.87
2017-07-29T00:22:51.616Z,16.87
2017-07-29T00:23:51.569Z,16.92
2017-07-29T00:24:51.008Z,16.88
2017-07-29T00:25:51.507Z,16.78
2017-07-29T00:26:51.178Z,16.91
2017-07-29T00:27:51.611Z,16.84
2017-07-29T00:28:51.401Z,16.82
2017-07-29T00:29:51.538Z,16.85
2017-07-29T00:30:51.396Z,16.88
2017-07-29T00:31:51.494Z,16.87
2017-07-29T00:32:51.160Z,16.78
2017-07-29T00:33:51.178Z,16.88
2017-07-29T00:34:51.239Z,16.91
2017-07-29T00:35:51.015Z,16.8
2017-07-29T00:36:51.226Z,16.85
2017-07-29T00:37:51.399Z,16.75
2017-07-29T00:38:51.154Z,16.72
2017-07-29T00:39:51.419Z,16.73
2017-07-29T00:40:51.173Z,16.78
2017-07-29T00:41:51.265Z,16.77
2017-07-29T00:42:51.161Z,16.81
2017-07-29T00:43:51.260Z,16.73
2017-07-29T00:44:51.112Z,16.72
2017-07-29T00:45:51.265Z,16.78
2017-07-29T00:46:51.082Z,16.82
2017-07-29T00:47:51.155Z,16.78
2017-07-29T00:48:51.030Z,16.78
2017-07-29T00:49:51.171Z,16.78
2017-07-29T00:50:50.981Z,16.8
2017-07-29T00:51:51.065Z,16.75
2017-07-29T00:52:50.344Z,16.82
2017-07-29T00:53:50.921Z,16.66
2017-07-29T00:54:50.576Z,16.77
2017-07-29T00:55:50.783Z,16.82
2017-07-29T00:56:50.543Z,16.66
2017-07-29T00:57:50.970Z,16.77
2017-07-29T00:58:50.820Z,16.69
2017-07-29T00:59:50.941Z,16.65
2017-07-29T01:00:50.408Z,16.73
2017-07-29T01:01:50.940Z,16.73
2017-07-29T01:02:50.752Z,16.81
2017-07-29T01:03:50.863Z,16.78
2017-07-29T01:04:50.376Z,16.78
2017-07-29T01:05:50.865Z,16.7
2017-07-29T01:06:50.324Z,16.75
2017-07-29T01:07:50.705Z,16.82
2017-07-29T01:08:50.453Z,16.8
2017-07-29T01:09:50.499Z,16.75
2017-07-29T01:10:49.945Z,16.78
2017-07-29T01:11:50.511Z,16.77
2017-07-29T01:12:50.174Z,16.73
2017-07-29T01:13:50.626Z,16.75
2017-07-29T01:14:49.675Z,16.77
2017-07-29T01:15:50.613Z,16.77
2017-07-29T01:16:50.633Z,16.78
2017-07-29T01:17:50.595Z,16.78
2017-07-29T01:18:50.443Z,16.73
2017-07-29T01:19:50.443Z,16.81
2017-07-29T01:20:50.401Z,16.78
2017-07-29T01:21:50.409Z,16.7
2017-07-29T01:22:50.197Z,16.75
2017-07-29T01:23:50.198Z,16.82
2017-07-29T01:24:49.837Z,16.8
2017-07-29T01:25:50.476Z,16.75
2017-07-29T01:26:49.782Z,16.75
2017-07-29T01:27:50.015Z,16.8
2017-07-29T01:28:50.197Z,16.77
2017-07-29T01:29:50.406Z,16.77
2017-07-29T01:30:50.041Z,16.8
2017-07-29T01:31:50.142Z,16.72
2017-07-29T01:32:49.896Z,16.73
2017-07-29T01:33:50.144Z,16.7
2017-07-29T01:34:49.946Z,16.77
2017-07-29T01:35:50.044Z,16.77
2017-07-29T01:36:49.880Z,16.81
2017-07-29T01:37:50.162Z,16.88
2017-07-29T01:38:49.406Z,16.9
2017-07-29T01:39:50.169Z,16.88
2017-07-29T01:40:49.635Z,16.85
2017-07-29T01:41:50.105Z,16.84
2017-07-29T01:42:49.831Z,16.81
2017-07-29T01:43:50.035Z,16.9
2017-07-29T01:44:49.422Z,16.82
2017-07-29T01:45:49.902Z,16.92
2017-07-29T01:46:49.495Z,16.8
2017-07-29T01:47:49.953Z,16.85
2017-07-29T01:48:49.896Z,16.9
2017-07-29T01:49:49.582Z,16.81
2017-07-29T01:50:49.665Z,16.9
2017-07-29T01:51:49.562Z,16.9
2017-07-29T01:52:49.476Z,16.87
2017-07-29T01:53:49.801Z,16.91
2017-07-29T01:54:49.604Z,16.98
2017-07-29T01:55:49.653Z,16.87
2017-07-29T01:56:49.724Z,16.91
2017-07-29T01:57:49.772Z,16.98
2017-07-29T01:58:49.682Z,16.9
2017-07-29T01:59:49.589Z,16.92
2017-07-29T02:00:49.617Z,16.87
2017-07-29T02:01:49.676Z,16.98
2017-07-29T02:02:49.468Z,16.96
2017-07-29T02:03:49.680Z,16.92
2017-07-29T02:04:49.556Z,16.98
2017-07-29T02:05:49.229Z,16.99
2017-07-29T02:06:49.502Z,16.96
2017-07-29T02:07:49.603Z,17
2017-07-29T02:08:49.162Z,16.99
2017-07-29T02:09:49.519Z,16.98
2017-07-29T02:10:48.956Z,16.95
2017-07-29T02:11:49.387Z,17.06
2017-07-29T02:12:49.064Z,17.02
2017-07-29T02:13:49.684Z,16.96
2017-07-29T02:14:48.491Z,17.1
2017-07-29T02:15:49.239Z,16.98
2017-07-29T02:16:48.963Z,17.06
2017-07-29T02:17:49.112Z,17.05
2017-07-29T02:18:49.293Z,17.02
2017-07-29T02:19:49.280Z,17.1
2017-07-29T02:20:49.269Z,17.1
2017-07-29T02:21:48.918Z,17.12
2017-07-29T02:22:48.667Z,17.15
2017-07-29T02:23:48.920Z,17.2
2017-07-29T02:24:49.089Z,17.14
2017-07-29T02:25:49.211Z,17.14
2017-07-29T02:26:48.924Z,17.1
2017-07-29T02:27:48.498Z,17.15
2017-07-29T02:28:49.050Z,17.24
2017-07-29T02:29:49.112Z,17.24
2017-07-29T02:30:48.944Z,17.2
2017-07-29T02:31:48.742Z,17.15
2017-07-29T02:32:48.971Z,17.32
2017-07-29T02:33:48.997Z,17.28
2017-07-29T02:34:48.973Z,17.33
2017-07-29T02:35:48.928Z,17.3
2017-07-29T02:36:48.862Z,17.28
2017-07-29T02:37:48.932Z,17.33
2017-07-29T02:38:48.993Z,17.27
2017-07-29T02:39:48.957Z,17.38
2017-07-29T02:40:48.456Z,17.35
2017-07-29T02:41:48.599Z,17.32
2017-07-29T02:42:48.586Z,17.28
2017-07-29T02:43:48.761Z,17.35
2017-07-29T02:44:48.678Z,17.4
2017-07-29T02:45:48.514Z,17.45
2017-07-29T02:46:48.492Z,17.4
2017-07-29T02:47:48.695Z,17.43
2017-07-29T02:48:48.453Z,17.36
2017-07-29T02:49:48.716Z,17.42
2017-07-29T02:50:48.410Z,17.38
2017-07-29T02:51:48.613Z,17.42
2017-07-29T02:52:48.520Z,17.39
2017-07-29T02:53:48.629Z,17.39
2017-07-29T02:54:48.305Z,17.46
2017-07-29T02:55:48.453Z,17.42
2017-07-29T02:56:48.288Z,17.45
2017-07-29T02:57:48.605Z,17.49
2017-07-29T02:58:47.665Z,17.47
2017-07-29T02:59:48.522Z,17.47
2017-07-29T03:00:47.477Z,17.43
2017-07-29T03:01:48.348Z,17.55
2017-07-29T03:02:48.172Z,17.49
2017-07-29T03:03:48.507Z,17.55
2017-07-29T03:04:48.160Z,17.54
2017-07-29T03:05:48.305Z,17.62
2017-07-29T03:06:47.970Z,17.54
2017-07-29T03:07:48.384Z,17.55
2017-07-29T03:08:47.897Z,17.6
2017-07-29T03:09:48.203Z,17.57
2017-07-29T03:10:47.587Z,17.54
2017-07-29T03:11:48.223Z,17.63
2017-07-29T03:12:48.134Z,17.66
2017-07-29T03:13:48.421Z,17.66
2017-07-29T03:14:47.920Z,17.65
2017-07-29T03:15:48.158Z,17.62
2017-07-29T03:16:47.452Z,17.66
2017-07-29T03:17:48.043Z,17.63
2017-07-29T03:18:47.858Z,17.73
2017-07-29T03:19:48.026Z,17.63
2017-07-29T03:20:47.829Z,17.77
2017-07-29T03:21:47.960Z,17.65
2017-07-29T03:22:47.809Z,17.68
2017-07-29T03:23:47.877Z,17.76
2017-07-29T03:24:47.923Z,17.76
2017-07-29T03:25:47.984Z,17.76
2017-07-29T03:26:47.714Z,17.86
2017-07-29T03:27:47.959Z,17.76
2017-07-29T03:28:47.653Z,17.74
2017-07-29T03:29:47.881Z,17.76
2017-07-29T03:30:47.648Z,17.79
2017-07-29T03:31:47.687Z,17.87
2017-07-29T03:32:47.449Z,17.79
2017-07-29T03:33:47.774Z,17.8
2017-07-29T03:34:47.382Z,17.8
2017-07-29T03:35:47.777Z,17.77
2017-07-29T03:36:47.646Z,17.89
2017-07-29T03:37:47.442Z,17.87
2017-07-29T03:38:47.028Z,17.8
2017-07-29T03:39:47.587Z,17.83
2017-07-29T03:40:47.428Z,17.79
2017-07-29T03:41:47.707Z,17.94
2017-07-29T03:42:47.426Z,17.91
2017-07-29T03:43:47.654Z,17.92
2017-07-29T03:44:46.804Z,17.89
2017-07-29T03:45:47.488Z,17.89
2017-07-29T03:46:47.022Z,17.96
2017-07-29T03:47:47.509Z,17.91
2017-07-29T03:48:47.459Z,17.87
2017-07-29T03:49:47.195Z,17.94
2017-07-29T03:50:46.600Z,17.99
2017-07-29T03:51:47.151Z,17.95
2017-07-29T03:52:47.230Z,17.83
2017-07-29T03:53:47.338Z,17.96
2017-07-29T03:54:47.296Z,17.98
2017-07-29T03:55:47.378Z,18.04
2017-07-29T03:56:47.271Z,17.98
2017-07-29T03:57:47.235Z,17.95
2017-07-29T03:58:47.122Z,17.96
2017-07-29T03:59:46.929Z,17.98
2017-07-29T04:00:47.078Z,18.02
2017-07-29T04:01:47.103Z,18.01
2017-07-29T04:02:47.043Z,17.99
2017-07-29T04:03:47.198Z,17.99
2017-07-29T04:04:46.919Z,18.05
2017-07-29T04:05:47.392Z,18.04
2017-07-29T04:06:47.109Z,18.1
2017-07-29T04:07:46.671Z,18.04
2017-07-29T04:08:46.925Z,18.01
2017-07-29T04:09:47.057Z,18.01
2017-07-29T04:10:46.689Z,18.05
2017-07-29T04:11:46.936Z,18.07
2017-07-29T04:12:47.005Z,18.11
2017-07-29T04:13:47.001Z,18.1
2017-07-29T04:14:46.779Z,18.09
2017-07-29T04:15:46.634Z,18.11
2017-07-29T04:16:46.900Z,18.11
2017-07-29T04:17:46.536Z,18.13
2017-07-29T04:18:46.844Z,18.19
2017-07-29T04:19:46.877Z,18.14
2017-07-29T04:20:46.628Z,18.16
2017-07-29T04:21:46.775Z,18.19
2017-07-29T04:22:46.763Z,18.13
2017-07-29T04:23:46.758Z,18.19
2017-07-29T04:24:46.721Z,18.17
2017-07-29T04:25:46.516Z,18.21
2017-07-29T04:26:46.703Z,18.21
2017-07-29T04:27:46.551Z,18.25
2017-07-29T04:28:46.386Z,18.23
2017-07-29T04:29:46.679Z,18.26
2017-07-29T04:30:46.642Z,18.29
2017-07-29T04:31:46.606Z,18.25
2017-07-29T04:32:46.450Z,18.28
2017-07-29T04:33:46.599Z,18.32
2017-07-29T04:34:46.561Z,18.2
2017-07-29T04:35:46.128Z,18.21
2017-07-29T04:36:45.981Z,18.29
2017-07-29T04:37:46.491Z,18.31
2017-07-29T04:38:46.464Z,18.28
2017-07-29T04:39:46.504Z,18.36
2017-07-29T04:40:46.269Z,18.32
2017-07-29T04:41:46.434Z,18.34
2017-07-29T04:42:46.225Z,18.44
2017-07-29T04:43:46.564Z,18.39
2017-07-29T04:44:46.214Z,18.32
2017-07-29T04:45:45.998Z,18.5
2017-07-29T04:46:46.152Z,18.38
2017-07-29T04:47:46.175Z,18.41
2017-07-29T04:48:46.297Z,18.5
2017-07-29T04:49:46.162Z,18.44
2017-07-29T04:50:46.039Z,18.56
2017-07-29T04:51:46.128Z,18.54
2017-07-29T04:52:46.202Z,18.51
2017-07-29T04:53:46.213Z,18.53
2017-07-29T04:54:46.028Z,18.51
2017-07-29T04:55:46.067Z,18.64
2017-07-29T04:56:45.943Z,18.59
2017-07-29T04:57:46.085Z,18.54
2017-07-29T04:58:45.906Z,18.64
2017-07-29T04:59:46.098Z,18.57
2017-07-29T05:00:45.594Z,18.66
2017-07-29T05:01:45.751Z,18.64
2017-07-29T05:02:45.878Z,18.69
2017-07-29T05:03:46.005Z,18.68
2017-07-29T05:04:45.951Z,18.59
2017-07-29T05:05:45.637Z,18.72
2017-07-29T05:06:45.801Z,18.76
2017-07-29T05:07:45.797Z,18.72
2017-07-29T05:08:45.702Z,18.71
2017-07-29T05:09:45.539Z,18.82
2017-07-29T05:10:45.651Z,18.89
2017-07-29T05:11:45.581Z,18.91
2017-07-29T05:12:45.735Z,18.97
2017-07-29T05:13:45.751Z,18.93
2017-07-29T05:14:45.638Z,18.93
2017-07-29T05:15:45.747Z,19.01
2017-07-29T05:16:45.802Z,19.02
2017-07-29T05:17:45.573Z,19.12
2017-07-29T05:18:45.517Z,19.13
2017-07-29T05:19:45.612Z,19.16
2017-07-29T05:20:45.519Z,19.15
2017-07-29T05:21:45.667Z,19.23
2017-07-29T05:22:45.475Z,19.17
2017-07-29T05:23:45.543Z,19.2
2017-07-29T05:24:45.546Z,19.23
2017-07-29T05:25:45.513Z,19.34
2017-07-29T05:26:45.224Z,19.35
2017-07-29T05:27:45.416Z,19.42
2017-07-29T05:28:45.524Z,19.57
2017-07-29T05:29:45.194Z,19.52
2017-07-29T05:30:45.333Z,19.65
2017-07-29T05:31:45.477Z,19.78
2017-07-29T05:32:45.261Z,19.98
2017-07-29T05:33:45.326Z,20.12
2017-07-29T05:34:45.149Z,20.33
2017-07-29T05:35:45.033Z,20.42
2017-07-29T05:36:45.362Z,20.4
2017-07-29T05:37:45.262Z,20.5
2017-07-29T05:38:44.385Z,20.44
2017-07-29T05:39:44.055Z,20.42
2017-07-29T05:40:44.041Z,20.33
2017-07-29T05:41:44.024Z,20.33
2017-07-29T05:42:44.005Z,20.27
2017-07-29T05:43:43.980Z,20.16
2017-07-29T05:44:43.990Z,20.22
2017-07-29T05:45:43.952Z,20.16
2017-07-29T05:46:43.621Z,20.04
2017-07-29T05:47:43.908Z,20.08
2017-07-29T05:48:43.889Z,20.12
2017-07-29T05:49:43.919Z,20.05
2017-07-29T05:50:43.559Z,19.98
2017-07-29T05:51:43.830Z,19.95
2017-07-29T05:52:43.820Z,20.07
2017-07-29T05:53:43.795Z,20.19
2017-07-29T05:54:43.778Z,20.66
2017-07-29T05:55:43.760Z,20.96
2017-07-29T05:56:43.739Z,21.15
2017-07-29T05:57:43.724Z,21.3
2017-07-29T05:58:43.757Z,21.61
2017-07-29T05:59:43.683Z,21.89
2017-07-29T06:00:43.663Z,22.3
2017-07-29T06:01:43.647Z,22.7
2017-07-29T06:02:43.629Z,23.04
2017-07-29T06:03:43.318Z,23.47
2017-07-29T06:04:43.604Z,23.82
2017-07-29T06:05:43.586Z,24.12
2017-07-29T06:06:43.270Z,24.56
2017-07-29T06:07:43.545Z,24.59
2017-07-29T06:08:43.545Z,24.46
2017-07-29T06:09:43.520Z,24.23
2017-07-29T06:10:43.502Z,24.12
2017-07-29T06:11:43.237Z,24
2017-07-29T06:12:43.478Z,23.9
2017-07-29T06:13:43.449Z,23.84
2017-07-29T06:14:43.495Z,23.79
2017-07-29T06:15:43.432Z,23.9
2017-07-29T06:16:43.403Z,23.86
2017-07-29T06:17:43.392Z,23.94
2017-07-29T06:18:43.383Z,24.15
2017-07-29T06:19:43.364Z,24.06
2017-07-29T06:20:43.050Z,24.14
2017-07-29T06:21:43.335Z,24.26
2017-07-29T06:22:43.316Z,24.26
2017-07-29T06:23:43.295Z,24.34
2017-07-29T06:24:42.972Z,24.53
2017-07-29T06:25:43.272Z,24.64
2017-07-29T06:26:43.303Z,24.6
2017-07-29T06:27:43.241Z,24.71
2017-07-29T06:28:43.228Z,24.82
2017-07-29T06:29:43.268Z,24.6
2017-07-29T06:30:43.201Z,24.53
2017-07-29T06:31:43.205Z,24.41
2017-07-29T06:32:43.166Z,24.42
2017-07-29T06:33:43.158Z,24.31
2017-07-29T06:34:43.141Z,24.42
2017-07-29T06:35:43.122Z,24.37
2017-07-29T06:36:43.109Z,24.19
2017-07-29T06:37:43.102Z,24.12
2017-07-29T06:38:42.781Z,24.18
2017-07-29T06:39:43.065Z,24.14
2017-07-29T06:40:42.746Z,24.19
2017-07-29T06:41:43.029Z,24.04
2017-07-29T06:42:43.011Z,23.99
2017-07-29T06:43:43.001Z,24.06
2017-07-29T06:44:42.986Z,24.08
2017-07-29T06:45:42.972Z,24.18
2017-07-29T06:46:42.957Z,24.44
2017-07-29T06:47:42.941Z,24.97
2017-07-29T06:48:42.626Z,25.24
2017-07-29T06:49:42.909Z,25.35
2017-07-29T06:50:42.920Z,25.36
2017-07-29T06:51:42.885Z,25.45
2017-07-29T06:52:42.875Z,25.38
2017-07-29T06:53:42.869Z,25.38
2017-07-29T06:54:42.540Z,25.39
2017-07-29T06:55:42.829Z,25.19
2017-07-29T06:56:42.812Z,25.19
2017-07-29T06:57:42.800Z,25.42
2017-07-29T06:58:42.780Z,25.76
2017-07-29T06:59:42.469Z,26.16
2017-07-29T07:00:42.769Z,26.6
2017-07-29T07:01:42.742Z,27.03
2017-07-29T07:02:42.729Z,27.34
2017-07-29T07:03:42.725Z,27.72
2017-07-29T07:04:42.705Z,27.98
2017-07-29T07:05:47.355Z,28.23
2017-07-29T07:06:42.677Z,28.39
2017-07-29T07:07:42.101Z,28.42
2017-07-29T07:08:42.669Z,28.7
2017-07-29T07:09:42.707Z,28.91
2017-07-29T07:10:42.631Z,29.17
2017-07-29T07:11:42.635Z,29.18
2017-07-29T07:12:42.613Z,29.23
2017-07-29T07:13:42.609Z,29.39
2017-07-29T07:14:42.609Z,29.55
2017-07-29T07:15:42.585Z,29.63
2017-07-29T07:16:42.270Z,29.52
2017-07-29T07:17:42.615Z,29.18
2017-07-29T07:18:42.562Z,28.97
2017-07-29T07:19:42.543Z,28.6
2017-07-29T07:20:42.536Z,28.35
2017-07-29T07:21:42.530Z,27.96
2017-07-29T07:22:42.521Z,27.69
2017-07-29T07:23:42.514Z,27.31
2017-07-29T07:24:42.503Z,27.01
2017-07-29T07:25:42.481Z,26.59
2017-07-29T07:26:42.472Z,26.12
2017-07-29T07:27:42.458Z,25.74
2017-07-29T07:28:42.453Z,25.38
2017-07-29T07:29:42.424Z,25.05
2017-07-29T07:30:42.425Z,24.74
2017-07-29T07:31:42.405Z,24.59
2017-07-29T07:32:42.089Z,24.31
2017-07-29T07:33:42.638Z,24.09
2017-07-29T07:34:42.362Z,23.96
2017-07-29T07:35:42.406Z,23.75
2017-07-29T07:36:42.344Z,23.6
2017-07-29T07:37:42.323Z,23.47
2017-07-29T07:38:42.308Z,23.41
2017-07-29T07:39:42.037Z,23.26
2017-07-29T07:40:41.981Z,23.31
2017-07-29T07:41:42.268Z,23.32
2017-07-29T07:42:42.248Z,23.22
2017-07-29T07:43:42.242Z,23.25
2017-07-29T07:44:42.273Z,23.32
2017-07-29T07:45:42.219Z,23.26
2017-07-29T07:46:42.190Z,23.41
2017-07-29T07:47:42.184Z,23.52
2017-07-29T07:48:42.157Z,23.53
2017-07-29T07:49:42.184Z,23.49
2017-07-29T07:50:41.823Z,23.42
2017-07-29T07:51:42.118Z,23.45
2017-07-29T07:52:41.790Z,23.34
2017-07-29T07:53:42.163Z,23.31
2017-07-29T07:54:42.064Z,23.25
2017-07-29T07:55:42.043Z,23.29
2017-07-29T07:56:42.027Z,23.04
2017-07-29T07:57:42.013Z,23
2017-07-29T07:58:41.995Z,22.99
2017-07-29T07:59:41.976Z,22.84
2017-07-29T08:00:41.965Z,22.75
2017-07-29T08:01:41.945Z,22.69
2017-07-29T08:02:41.934Z,22.56
2017-07-29T08:03:41.917Z,22.51
2017-07-29T08:04:41.896Z,22.54
2017-07-29T08:05:41.881Z,22.33
2017-07-29T08:06:41.864Z,22.35
2017-07-29T08:07:41.848Z,22.36
2017-07-29T08:08:41.826Z,22.38
2017-07-29T08:09:41.912Z,22.36
2017-07-29T08:10:41.788Z,22.3
2017-07-29T08:11:41.789Z,22.31
2017-07-29T08:12:41.789Z,22.41
2017-07-29T08:13:41.747Z,22.36
2017-07-29T08:14:41.725Z,22.44
2017-07-29T08:15:41.716Z,22.48
2017-07-29T08:16:41.386Z,22.51
2017-07-29T08:17:41.672Z,22.67
2017-07-29T08:18:41.669Z,22.74
2017-07-29T08:19:41.650Z,22.72
2017-07-29T08:20:41.677Z,22.67
2017-07-29T08:21:41.602Z,22.67
2017-07-29T08:22:41.590Z,22.59
2017-07-29T08:23:41.568Z,22.59
2017-07-29T08:24:41.551Z,22.56
2017-07-29T08:25:41.542Z,22.57
2017-07-29T08:26:41.527Z,22.66
2017-07-29T08:27:41.504Z,22.84
2017-07-29T08:28:41.501Z,22.86
2017-07-29T08:29:41.470Z,23.04
2017-07-29T08:30:41.479Z,23.56
2017-07-29T08:31:41.439Z,23.79
2017-07-29T08:32:41.423Z,24.11
2017-07-29T08:33:41.401Z,24.26
2017-07-29T08:34:41.387Z,24.49
2017-07-29T08:35:41.378Z,24.74
2017-07-29T08:36:41.357Z,24.71
2017-07-29T08:37:41.339Z,24.63
2017-07-29T08:38:41.339Z,24.84
2017-07-29T08:39:41.313Z,25.02
2017-07-29T08:40:41.000Z,25.07
2017-07-29T08:41:41.288Z,24.98
2017-07-29T08:42:41.277Z,24.94
2017-07-29T08:43:41.252Z,24.86
2017-07-29T08:44:41.241Z,24.75
2017-07-29T08:45:40.920Z,24.7
2017-07-29T08:46:40.901Z,24.53
2017-07-29T08:47:41.189Z,24.34
2017-07-29T08:48:40.882Z,24.26
2017-07-29T08:49:41.157Z,24.04
2017-07-29T08:50:41.192Z,23.86
2017-07-29T08:51:41.129Z,23.75
2017-07-29T08:52:41.121Z,23.68
2017-07-29T08:53:41.104Z,23.54
2017-07-29T08:54:41.083Z,23.57
2017-07-29T08:55:41.071Z,23.49
2017-07-29T08:56:41.050Z,23.44
2017-07-29T08:57:40.741Z,23.39
2017-07-29T08:58:41.020Z,23.26
2017-07-29T08:59:41.007Z,23.18
2017-07-29T09:00:40.982Z,23.11
2017-07-29T09:01:40.975Z,23.14
2017-07-29T09:02:40.953Z,23.03
2017-07-29T09:03:40.996Z,23.15
2017-07-29T09:04:40.922Z,23.23
2017-07-29T09:05:40.910Z,23.38
2017-07-29T09:06:40.899Z,23.64
2017-07-29T09:07:40.878Z,23.79
2017-07-29T09:08:40.861Z,23.89
2017-07-29T09:09:40.550Z,23.97
2017-07-29T09:10:40.828Z,23.99
2017-07-29T09:11:40.814Z,23.96
2017-07-29T09:12:40.806Z,24.04
2017-07-29T09:13:40.790Z,23.96
2017-07-29T09:14:40.771Z,23.93
2017-07-29T09:15:40.747Z,23.94
2017-07-29T09:16:40.761Z,23.9
2017-07-29T09:17:40.722Z,23.94
2017-07-29T09:18:40.708Z,23.92
2017-07-29T09:19:40.697Z,24.11
2017-07-29T09:20:40.667Z,24.11
2017-07-29T09:21:40.658Z,24.3
2017-07-29T09:22:40.668Z,24.15
2017-07-29T09:23:40.677Z,24.08
2017-07-29T09:24:40.606Z,24.09
2017-07-29T09:25:40.591Z,24.08
2017-07-29T09:26:40.576Z,24
2017-07-29T09:27:40.563Z,24.05
2017-07-29T09:28:40.547Z,24.11
2017-07-29T09:29:40.587Z,24.12
2017-07-29T09:30:40.511Z,24.12
2017-07-29T09:31:40.496Z,24.04
2017-07-29T09:32:40.483Z,23.93
2017-07-29T09:33:40.468Z,23.86
2017-07-29T09:34:40.470Z,23.84
2017-07-29T09:35:40.439Z,23.86
2017-07-29T09:36:40.420Z,23.79
2017-07-29T09:37:40.419Z,23.81
2017-07-29T09:38:40.088Z,23.78
2017-07-29T09:39:40.371Z,23.82
2017-07-29T09:40:40.365Z,23.74
2017-07-29T09:41:40.401Z,23.75
2017-07-29T09:42:40.324Z,23.78
2017-07-29T09:43:40.317Z,23.81
2017-07-29T09:44:40.291Z,23.87
2017-07-29T09:45:39.984Z,23.99
2017-07-29T09:46:40.265Z,24.08
2017-07-29T09:47:40.296Z,24.06
2017-07-29T09:48:40.284Z,23.99
2017-07-29T09:49:40.224Z,24.04
2017-07-29T09:50:40.200Z,24.14
2017-07-29T09:51:40.187Z,24.05
2017-07-29T09:52:40.172Z,24
2017-07-29T09:53:39.865Z,23.92
2017-07-29T09:54:40.140Z,23.97
2017-07-29T09:55:40.119Z,23.92
2017-07-29T09:56:40.108Z,23.9
2017-07-29T09:57:40.093Z,23.78
2017-07-29T09:58:40.075Z,23.63
2017-07-29T09:59:40.108Z,23.54
2017-07-29T10:00:40.043Z,23.47
2017-07-29T10:01:40.028Z,23.42
2017-07-29T10:02:40.006Z,23.39
2017-07-29T10:03:40.005Z,23.37
2017-07-29T10:04:39.994Z,23.31
2017-07-29T10:05:39.661Z,23.25
2017-07-29T10:06:39.940Z,23.34
2017-07-29T10:07:39.934Z,23.26
2017-07-29T10:08:39.916Z,23.44
2017-07-29T10:09:39.595Z,23.6
2017-07-29T10:10:39.883Z,23.92
2017-07-29T10:11:39.879Z,24.08
2017-07-29T10:12:39.862Z,24.23
2017-07-29T10:13:39.581Z,24.42
2017-07-29T10:14:39.828Z,24.66
2017-07-29T10:15:39.799Z,24.83
2017-07-29T10:16:39.831Z,25.04
2017-07-29T10:17:39.462Z,25.08
2017-07-29T10:18:39.760Z,25.12
2017-07-29T10:19:39.735Z,25.16
2017-07-29T10:20:39.734Z,25.16
2017-07-29T10:21:39.413Z,25.19
2017-07-29T10:22:39.702Z,25.23
2017-07-29T10:23:39.686Z,25.27
2017-07-29T10:24:39.719Z,25.26
2017-07-29T10:25:39.650Z,25.29
2017-07-29T10:26:39.640Z,25.12
2017-07-29T10:27:39.646Z,25.05
2017-07-29T10:28:39.603Z,25.12
2017-07-29T10:29:39.285Z,25.07
2017-07-29T10:30:39.574Z,25.04
2017-07-29T10:31:39.667Z,24.99
2017-07-29T10:32:39.552Z,24.92
2017-07-29T10:33:39.531Z,24.87
2017-07-29T10:34:39.513Z,24.86
2017-07-29T10:35:39.519Z,24.89
2017-07-29T10:36:39.489Z,24.82
2017-07-29T10:37:39.467Z,24.89
2017-07-29T10:38:39.451Z,24.75
2017-07-29T10:39:39.435Z,24.59
2017-07-29T10:40:39.425Z,24.51
2017-07-29T10:41:39.106Z,24.42
2017-07-29T10:42:39.390Z,24.37
2017-07-29T10:43:39.075Z,24.3
2017-07-29T10:44:39.363Z,24.18
2017-07-29T10:45:39.348Z,24.26
2017-07-29T10:46:39.336Z,24.37
2017-07-29T10:47:39.330Z,24.3
2017-07-29T10:48:39.322Z,24.34
2017-07-29T10:49:39.307Z,24.16
2017-07-29T10:50:39.295Z,24.15
2017-07-29T10:51:39.247Z,24.14
2017-07-29T10:52:39.237Z,24.11
2017-07-29T10:53:39.221Z,24.06
2017-07-29T10:54:39.206Z,24.05
2017-07-29T10:55:39.244Z,23.89
2017-07-29T10:56:39.173Z,23.96
2017-07-29T10:57:39.157Z,23.93
2017-07-29T10:58:39.148Z,23.97
2017-07-29T10:59:39.130Z,23.89
2017-07-29T11:00:39.111Z,23.93
2017-07-29T11:01:39.092Z,23.9
2017-07-29T11:02:39.081Z,23.86
2017-07-29T11:03:38.754Z,23.84
2017-07-29T11:04:39.052Z,23.77
2017-07-29T11:05:39.034Z,23.79
2017-07-29T11:06:39.008Z,23.68
2017-07-29T11:07:38.695Z,23.64
2017-07-29T11:08:38.984Z,23.62
2017-07-29T11:09:38.953Z,23.67
2017-07-29T11:10:38.954Z,23.67
2017-07-29T11:11:38.925Z,23.6
2017-07-29T11:12:38.610Z,23.69
2017-07-29T11:13:38.895Z,23.64
2017-07-29T11:14:38.579Z,23.69
2017-07-29T11:15:38.860Z,23.62
2017-07-29T11:16:38.848Z,23.77
2017-07-29T11:17:38.848Z,23.84
2017-07-29T11:18:38.816Z,23.97
2017-07-29T11:19:38.799Z,24.08
2017-07-29T11:20:38.783Z,24.21
2017-07-29T11:21:38.769Z,24.39
2017-07-29T11:22:38.457Z,24.53
2017-07-29T11:23:38.432Z,24.71
2017-07-29T11:24:38.776Z,24.74
2017-07-29T11:25:38.704Z,24.87
2017-07-29T11:26:38.680Z,24.79
2017-07-29T11:27:38.665Z,24.86
2017-07-29T11:28:38.665Z,24.86
2017-07-29T11:29:38.645Z,24.93
2017-07-29T11:30:38.614Z,24.8
2017-07-29T11:31:38.307Z,24.75
2017-07-29T11:32:38.602Z,24.7
2017-07-29T11:33:38.581Z,24.61
2017-07-29T11:34:38.269Z,24.45
2017-07-29T11:35:38.553Z,24.39
2017-07-29T11:36:38.532Z,24.27
2017-07-29T11:37:38.509Z,24.14
2017-07-29T11:38:38.503Z,24.11
2017-07-29T11:39:37.876Z,23.94
2017-07-29T11:40:38.476Z,23.92
2017-07-29T11:41:38.442Z,23.79
2017-07-29T11:42:38.430Z,23.77
2017-07-29T11:43:38.116Z,23.69
2017-07-29T11:44:38.095Z,23.56
2017-07-29T11:45:38.373Z,23.59
2017-07-29T11:46:38.371Z,23.52
2017-07-29T11:47:38.353Z,23.47
2017-07-29T11:48:38.389Z,23.47
2017-07-29T11:49:38.339Z,23.5
2017-07-29T11:50:38.309Z,23.57
2017-07-29T11:51:38.321Z,23.63
2017-07-29T11:52:38.259Z,23.79
2017-07-29T11:53:38.251Z,23.97
2017-07-29T11:54:38.234Z,24.06
2017-07-29T11:55:37.911Z,24.31
2017-07-29T11:56:38.208Z,24.48
2017-07-29T11:57:38.181Z,24.66
2017-07-29T11:58:38.168Z,24.8
2017-07-29T11:59:38.154Z,24.99
2017-07-29T12:00:38.137Z,25.02
2017-07-29T12:01:38.114Z,25.22
2017-07-29T12:02:38.101Z,25.29
2017-07-29T12:03:37.504Z,25.36
2017-07-29T12:04:38.066Z,25.41
2017-07-29T12:05:38.055Z,25.59
2017-07-29T12:06:38.038Z,25.6
2017-07-29T12:07:38.038Z,25.64
2017-07-29T12:08:37.699Z,25.75
2017-07-29T12:09:38.006Z,25.69
2017-07-29T12:10:37.985Z,25.66
2017-07-29T12:11:37.656Z,25.6
2017-07-29T12:12:37.991Z,25.63
2017-07-29T12:13:37.947Z,25.56
2017-07-29T12:14:37.926Z,25.51
2017-07-29T12:15:37.891Z,25.51
2017-07-29T12:16:37.878Z,25.6
2017-07-29T12:17:37.870Z,25.53
2017-07-29T12:18:37.859Z,25.53
2017-07-29T12:19:37.864Z,25.59
2017-07-29T12:20:37.874Z,25.72
2017-07-29T12:21:37.816Z,25.64
2017-07-29T12:22:37.487Z,25.51
2017-07-29T12:23:37.512Z,25.49
2017-07-29T12:24:37.817Z,25.39
2017-07-29T12:25:37.745Z,25.36
2017-07-29T12:26:37.735Z,25.22
2017-07-29T12:27:37.717Z,25.31
2017-07-29T12:28:37.705Z,25.29
2017-07-29T12:29:37.696Z,25.23
2017-07-29T12:30:37.672Z,25.3
2017-07-29T12:31:37.649Z,25.14
2017-07-29T12:32:37.333Z,25.09
2017-07-29T12:33:37.620Z,24.99
2017-07-29T12:34:37.314Z,24.93
2017-07-29T12:35:37.303Z,24.87
2017-07-29T12:36:37.571Z,24.75
2017-07-29T12:37:37.563Z,24.75
2017-07-29T12:38:37.245Z,24.74
2017-07-29T12:39:37.220Z,24.75
2017-07-29T12:40:37.512Z,24.75
2017-07-29T12:41:37.492Z,24.8
2017-07-29T12:42:37.479Z,24.75
2017-07-29T12:43:37.461Z,24.8
2017-07-29T12:44:37.692Z,24.77
2017-07-29T12:45:37.426Z,24.87
2017-07-29T12:46:37.422Z,24.86
2017-07-29T12:47:37.406Z,24.74
2017-07-29T12:48:37.377Z,24.74
2017-07-29T12:49:37.372Z,24.74
2017-07-29T12:50:37.350Z,24.71
2017-07-29T12:51:37.339Z,24.67
2017-07-29T12:52:37.020Z,24.66
2017-07-29T12:53:37.299Z,24.7
2017-07-29T12:54:37.289Z,24.75
2017-07-29T12:55:37.267Z,24.82